Pagina principală
METAR-TAF:

METAR-TAF

Aeroporturi :

Pohnpei, Micronezia

Latitudine: 06-59N, longitudine: 158-12E, elevație: 2 m

Observații meteo curente

Raportul a fost făcut în urmă cu 8 ore și 19 de minute, la 12:52 UTC
Vânt 9 kt de la Est
Temperatură 27°C
Umiditate 89%
Presiune 1007 hPa
Vizibilitate: 24.1 km
Nori împrăștiați la o înălțime de 1800 picior
Nori fragmentați la o înălțime de 13000 picior
Total acoperit la o înălțime de 30000 picior

METAR: PTPN 121252Z 09009KT 15SM SCT018 BKN130 OVC300 27/25 A2973 RMK LAST

Ora: 08:11 (21:11 UTC)

Prognoză

Raportul a fost făcut în urmă cu 9 ore și 45 de minute, la 11:26 UTC
Prognoză valabilă de la 12 ora 12 UTC la 13 ora 12 UTC
Vânt 14 kt de la Nord-est
Vizibilitate: 10 km
Nori împrăștiați la o înălțime de 1800 picior
Nori fragmentați la o înălțime de 13000 picior
averse în apropiere,

TAF: PTPN 121126Z 1212/1312 05014KT P6SM VCSH SCT018 BKN130

Observații și prognoze meteo pentru peste 4.000 de aeroporturi (rapoarte METAR și TAF).

Stațiile disponibile sunt reprezentate pe hartă prin puncte galbene și roșii.

Țineți indicatorul mouse-ului pe punctul dorit pentru a vedea denumirea stației.

Apoi, faceți clic pentru a vedea observațiile și prognozele meteorologice.

Pentru a schimba harta: Pentru mărire, faceți clic pe butoanele verzi cu cruce neagră; pentru micșorare, pe butonul verde cu o liniuță; pentru hărți învecinate, pe săgețile verzi.


METAR-TAF: